sensor_id;sensor_type;location;lat;lon;timestamp;pressure;altitude;pressure_sealevel;temperature;humidity
3697;BME280;60662;48.810;8.872;2023-04-20T05:26:37;96320.75;;;-0.73;89.54
3697;BME280;60662;48.810;8.872;2023-04-20T05:27:38;96307.91;;;-0.71;88.96
3697;BME280;60662;48.810;8.872;2023-04-20T06:59:43;96282.09;;;6.65;69.63
3697;BME280;60662;48.810;8.872;2023-04-20T07:01:43;96297.13;;;6.80;68.19
3697;BME280;60662;48.810;8.872;2023-04-20T07:02:48;96289.38;;;6.79;66.84
3697;BME280;60662;48.810;8.872;2023-04-20T07:03:50;96291.41;;;6.96;67.58
3697;BME280;60662;48.810;8.872;2023-04-20T07:04:59;96296.34;;;7.02;67.62
3697;BME280;60662;48.810;8.872;2023-04-20T07:06:01;96296.00;;;6.88;66.93
3697;BME280;60662;48.810;8.872;2023-04-20T07:07:02;96295.88;;;6.67;66.74
3697;BME280;60662;48.810;8.872;2023-04-20T07:08:04;96292.38;;;6.43;68.42
3697;BME280;60662;48.810;8.872;2023-04-20T07:09:05;96299.28;;;6.42;68.54
3697;BME280;60662;48.810;8.872;2023-04-20T07:10:10;96295.88;;;6.67;67.82
3697;BME280;60662;48.810;8.872;2023-04-20T07:11:12;96293.22;;;6.16;68.91
3697;BME280;60662;48.810;8.872;2023-04-20T07:12:13;96290.34;;;6.76;68.40
3697;BME280;60662;48.810;8.872;2023-04-20T07:13:16;96287.16;;;7.17;66.90
3697;BME280;60662;48.810;8.872;2023-04-20T07:14:17;96290.94;;;7.32;66.29
3697;BME280;60662;48.810;8.872;2023-04-20T07:15:19;96284.13;;;7.29;65.17
3697;BME280;60662;48.810;8.872;2023-04-20T07:16:20;96286.38;;;6.91;65.93
3697;BME280;60662;48.810;8.872;2023-04-20T07:17:21;96286.28;;;7.18;65.14
3697;BME280;60662;48.810;8.872;2023-04-20T07:18:23;96286.91;;;7.01;65.88
3697;BME280;60662;48.810;8.872;2023-04-20T07:19:24;96281.41;;;7.09;66.89
3697;BME280;60662;48.810;8.872;2023-04-20T07:20:26;96287.00;;;7.67;65.74
3697;BME280;60662;48.810;8.872;2023-04-20T07:21:27;96283.81;;;7.37;66.27
3697;BME280;60662;48.810;8.872;2023-04-20T07:22:30;96279.81;;;7.52;66.03
3697;BME280;60662;48.810;8.872;2023-04-20T07:23:32;96276.47;;;6.77;67.11
3697;BME280;60662;48.810;8.872;2023-04-20T07:24:34;96276.72;;;7.18;66.01
3697;BME280;60662;48.810;8.872;2023-04-20T07:25:35;96276.41;;;7.28;65.39
3697;BME280;60662;48.810;8.872;2023-04-20T07:26:36;96269.50;;;7.03;66.39
3697;BME280;60662;48.810;8.872;2023-04-20T07:27:39;96270.88;;;6.88;66.65
3697;BME280;60662;48.810;8.872;2023-04-20T07:28:41;96256.78;;;7.43;66.06
3697;BME280;60662;48.810;8.872;2023-04-20T07:29:42;96272.97;;;7.72;64.94
3697;BME280;60662;48.810;8.872;2023-04-20T07:30:44;96273.66;;;7.99;64.38
3697;BME280;60662;48.810;8.872;2023-04-20T07:31:45;96266.44;;;7.15;65.49
3697;BME280;60662;48.810;8.872;2023-04-20T07:32:47;96269.78;;;7.43;65.60
3697;BME280;60662;48.810;8.872;2023-04-20T07:33:49;96269.09;;;8.04;64.07
3697;BME280;60662;48.810;8.872;2023-04-20T07:34:50;96268.88;;;7.66;64.06
3697;BME280;60662;48.810;8.872;2023-04-20T07:35:52;96273.34;;;7.16;64.69
3697;BME280;60662;48.810;8.872;2023-04-20T07:36:53;96278.75;;;6.61;67.49
3697;BME280;60662;48.810;8.872;2023-04-20T07:37:54;96280.38;;;6.64;67.17
3697;BME280;60662;48.810;8.872;2023-04-20T07:38:56;96279.88;;;6.02;69.01
3697;BME280;60662;48.810;8.872;2023-04-20T07:39:57;96285.44;;;6.16;70.34
3697;BME280;60662;48.810;8.872;2023-04-20T07:40:59;96269.59;;;6.76;68.57
3697;BME280;60662;48.810;8.872;2023-04-20T07:42:01;96282.88;;;7.16;67.99
3697;BME280;60662;48.810;8.872;2023-04-20T07:43:03;96280.13;;;7.21;66.22
3697;BME280;60662;48.810;8.872;2023-04-20T07:44:05;96282.00;;;6.68;67.45
3697;BME280;60662;48.810;8.872;2023-04-20T07:45:08;96281.53;;;6.82;67.05
3697;BME280;60662;48.810;8.872;2023-04-20T07:46:18;96278.19;;;7.26;66.92
3697;BME280;60662;48.810;8.872;2023-04-20T07:47:20;96283.59;;;7.43;66.67
3697;BME280;60662;48.810;8.872;2023-04-20T07:48:22;96273.31;;;7.86;65.65
3697;BME280;60662;48.810;8.872;2023-04-20T07:49:24;96287.22;;;7.15;66.86
3697;BME280;60662;48.810;8.872;2023-04-20T07:50:26;96278.88;;;6.83;67.68
3697;BME280;60662;48.810;8.872;2023-04-20T07:51:27;96281.59;;;7.28;66.89
3697;BME280;60662;48.810;8.872;2023-04-20T07:52:30;96267.47;;;7.11;67.22
3697;BME280;60662;48.810;8.872;2023-04-20T07:53:32;96277.81;;;7.59;66.87
3697;BME280;60662;48.810;8.872;2023-04-20T07:54:35;96271.97;;;7.98;66.24
3697;BME280;60662;48.810;8.872;2023-04-20T07:55:37;96275.94;;;8.70;64.93
3697;BME280;60662;48.810;8.872;2023-04-20T07:56:38;96272.16;;;9.17;64.01
3697;BME280;60662;48.810;8.872;2023-04-20T07:57:40;96272.81;;;9.60;62.30
3697;BME280;60662;48.810;8.872;2023-04-20T07:58:42;96267.06;;;9.71;61.57
3697;BME280;60662;48.810;8.872;2023-04-20T07:59:44;96260.72;;;9.77;61.50
3697;BME280;60662;48.810;8.872;2023-04-20T08:00:46;96265.03;;;9.78;61.84
3697;BME280;60662;48.810;8.872;2023-04-20T08:01:48;96270.38;;;10.11;60.86
3697;BME280;60662;48.810;8.872;2023-04-20T08:02:50;96268.38;;;10.17;60.26
3697;BME280;60662;48.810;8.872;2023-04-20T08:03:52;96258.88;;;10.16;60.15
3697;BME280;60662;48.810;8.872;2023-04-20T08:04:56;96267.78;;;10.11;60.46
3697;BME280;60662;48.810;8.872;2023-04-20T08:05:58;96270.41;;;9.56;59.11
3697;BME280;60662;48.810;8.872;2023-04-20T08:06:59;96273.34;;;9.10;60.64
3697;BME280;60662;48.810;8.872;2023-04-20T08:08:01;96273.41;;;8.69;62.48
3697;BME280;60662;48.810;8.872;2023-04-20T08:09:03;96268.38;;;8.85;63.28
3697;BME280;60662;48.810;8.872;2023-04-20T08:10:05;96269.47;;;9.19;61.98
3697;BME280;60662;48.810;8.872;2023-04-20T08:11:07;96273.09;;;8.13;63.39
3697;BME280;60662;48.810;8.872;2023-04-20T08:12:09;96265.88;;;8.20;64.83
3697;BME280;60662;48.810;8.872;2023-04-20T08:13:10;96266.94;;;8.36;63.80
3697;BME280;60662;48.810;8.872;2023-04-20T08:14:12;96265.44;;;8.30;64.41
3697;BME280;60662;48.810;8.872;2023-04-20T08:15:14;96264.00;;;8.44;63.91
3697;BME280;60662;48.810;8.872;2023-04-20T08:16:15;96266.88;;;7.95;64.75
3697;BME280;60662;48.810;8.872;2023-04-20T08:17:17;96265.38;;;7.21;66.67
3697;BME280;60662;48.810;8.872;2023-04-20T08:18:18;96262.06;;;6.94;67.32
3697;BME280;60662;48.810;8.872;2023-04-20T08:19:21;96259.78;;;6.84;68.99
3697;BME280;60662;48.810;8.872;2023-04-20T08:20:23;96266.72;;;6.60;68.45
3697;BME280;60662;48.810;8.872;2023-04-20T08:21:25;96253.81;;;7.06;67.51
3697;BME280;60662;48.810;8.872;2023-04-20T08:22:27;96264.59;;;6.70;67.44
3697;BME280;60662;48.810;8.872;2023-04-20T08:23:30;96266.75;;;7.31;67.40
3697;BME280;60662;48.810;8.872;2023-04-20T08:24:32;96270.41;;;7.94;66.20
3697;BME280;60662;48.810;8.872;2023-04-20T08:25:33;96263.63;;;8.53;65.41
3697;BME280;60662;48.810;8.872;2023-04-20T08:26:35;96259.59;;;8.03;65.71
3697;BME280;60662;48.810;8.872;2023-04-20T08:27:37;96255.88;;;8.31;64.50
3697;BME280;60662;48.810;8.872;2023-04-20T08:28:38;96248.88;;;8.33;63.62
3697;BME280;60662;48.810;8.872;2023-04-20T08:29:40;96251.50;;;8.31;64.97
3697;BME280;60662;48.810;8.872;2023-04-20T08:30:42;96247.97;;;8.55;63.81
3697;BME280;60662;48.810;8.872;2023-04-20T08:31:43;96254.59;;;8.82;63.98
3697;BME280;60662;48.810;8.872;2023-04-20T08:32:45;96252.25;;;9.35;63.43
3697;BME280;60662;48.810;8.872;2023-04-20T08:33:46;96262.44;;;9.59;62.26
3697;BME280;60662;48.810;8.872;2023-04-20T08:34:48;96251.69;;;9.28;61.94
3697;BME280;60662;48.810;8.872;2023-04-20T08:35:50;96256.81;;;9.11;61.86
3697;BME280;60662;48.810;8.872;2023-04-20T08:36:52;96259.84;;;9.59;62.14
3697;BME280;60662;48.810;8.872;2023-04-20T08:37:53;96262.22;;;9.44;61.48
3697;BME280;60662;48.810;8.872;2023-04-20T08:39:06;96257.34;;;8.37;64.10
3697;BME280;60662;48.810;8.872;2023-04-20T08:40:09;96263.03;;;8.67;63.32
3697;BME280;60662;48.810;8.872;2023-04-20T08:41:11;96258.91;;;8.63;63.81
3697;BME280;60662;48.810;8.872;2023-04-20T08:42:13;96261.41;;;8.23;63.69
3697;BME280;60662;48.810;8.872;2023-04-20T08:43:17;96257.16;;;7.78;65.08
3697;BME280;60662;48.810;8.872;2023-04-20T08:44:18;96253.22;;;7.67;66.76
3697;BME280;60662;48.810;8.872;2023-04-20T08:45:20;96261.25;;;8.06;67.34
3697;BME280;60662;48.810;8.872;2023-04-20T08:46:23;96258.53;;;7.87;66.54
3697;BME280;60662;48.810;8.872;2023-04-20T08:47:26;96260.09;;;8.13;65.67
3697;BME280;60662;48.810;8.872;2023-04-20T08:48:36;96261.38;;;7.58;66.65
3697;BME280;60662;48.810;8.872;2023-04-20T08:49:38;96255.22;;;7.83;66.42
3697;BME280;60662;48.810;8.872;2023-04-20T08:50:40;96252.84;;;7.99;66.79
3697;BME280;60662;48.810;8.872;2023-04-20T08:51:43;96260.41;;;7.83;66.32
3697;BME280;60662;48.810;8.872;2023-04-20T08:52:45;96257.03;;;7.59;67.59
3697;BME280;60662;48.810;8.872;2023-04-20T08:53:46;96262.22;;;7.37;67.48
3697;BME280;60662;48.810;8.872;2023-04-20T08:54:48;96262.13;;;7.62;67.90
3697;BME280;60662;48.810;8.872;2023-04-20T08:55:57;96250.56;;;7.69;66.74
3697;BME280;60662;48.810;8.872;2023-04-20T08:56:59;96260.69;;;7.31;68.09
3697;BME280;60662;48.810;8.872;2023-04-20T08:58:02;96257.84;;;7.37;67.72
3697;BME280;60662;48.810;8.872;2023-04-20T08:59:04;96264.63;;;7.41;68.35
3697;BME280;60662;48.810;8.872;2023-04-20T09:00:13;96252.84;;;7.55;68.30
3697;BME280;60662;48.810;8.872;2023-04-20T09:01:26;96262.06;;;7.63;68.05
3697;BME280;60662;48.810;8.872;2023-04-20T09:02:46;96259.38;;;7.65;67.73
